Time;durP1;ratioP1;P1;durP2;ratioP2;P2;SDS_P1;SDS_P2;PMS_P1;PMS_P2;Temp;Humidity;BMP_temperature;BMP_pressure;BME280_temperature;BME280_humidity;BME280_pressure;Samples;Min_cycle;Max_cycle;Signal;HPM_P1;HPM_P2
2022/12/26 00:00:36;;;;;;;11.18;6.68;;;7.20;69.90;;;;;;4741783;29;114792;-83
2022/12/26 00:03:04;;;;;;;12.00;6.43;;;7.20;69.90;;;;;;4754845;29;114957;-82
2022/12/26 00:05:36;;;;;;;11.30;5.78;;;7.20;70.10;;;;;;4740906;29;115106;-82
2022/12/26 00:08:03;;;;;;;10.57;5.32;;;7.30;70.20;;;;;;4738500;29;115215;-82
2022/12/26 00:10:30;;;;;;;8.93;5.10;;;7.30;70.20;;;;;;4754878;29;114661;-82
2022/12/26 00:12:59;;;;;;;9.43;5.13;;;7.30;70.20;;;;;;4740031;29;114543;-82
2022/12/26 00:15:46;;;;;;;9.30;5.82;;;7.40;70.20;;;;;;4740625;29;116245;-82
2022/12/26 00:18:13;;;;;;;10.10;4.85;;;7.40;70.20;;;;;;4739215;29;116906;-82
2022/12/26 00:20:40;;;;;;;8.45;5.03;;;7.50;70.20;;;;;;4740708;29;114791;-82
2022/12/26 00:23:08;;;;;;;10.52;5.72;;;7.60;70.20;;;;;;4752205;29;114696;-82
2022/12/26 00:25:35;;;;;;;11.90;5.88;;;7.60;70.20;;;;;;4724381;29;115111;-82
2022/12/26 00:28:02;;;;;;;9.43;5.97;;;7.60;70.20;;;;;;4739022;29;116148;-82
2022/12/26 00:30:32;;;;;;;10.70;5.85;;;7.70;70.20;;;;;;4723788;29;114449;-83
2022/12/26 00:32:59;;;;;;;9.30;5.57;;;7.70;70.30;;;;;;4738818;29;114514;-82
2022/12/26 00:35:27;;;;;;;9.32;5.10;;;7.70;70.30;;;;;;4738783;29;115459;-82
2022/12/26 00:37:54;;;;;;;10.20;5.60;;;7.70;70.40;;;;;;4738906;29;114713;-82
2022/12/26 00:40:21;;;;;;;9.35;5.43;;;7.70;70.40;;;;;;4753902;29;114719;-82
2022/12/26 00:42:48;;;;;;;11.75;5.85;;;7.70;70.40;;;;;;4739946;29;114515;-82
2022/12/26 00:45:16;;;;;;;9.98;5.60;;;7.70;70.40;;;;;;4740459;29;115245;-82
2022/12/26 00:47:43;;;;;;;8.70;5.60;;;7.80;70.40;;;;;;4753164;29;114691;-82
2022/12/26 00:50:10;;;;;;;12.60;6.80;;;7.90;70.40;;;;;;4747757;29;115556;-82
2022/12/26 00:52:42;;;;;;;8.32;5.72;;;7.80;70.40;;;;;;4745415;29;114471;-82
2022/12/26 00:55:09;;;;;;;12.00;6.00;;;7.80;70.40;;;;;;4725143;29;115153;-83
2022/12/26 00:57:36;;;;;;;10.68;5.72;;;7.80;70.40;;;;;;4740912;29;114782;-83
2022/12/26 01:00:05;;;;;;;10.13;5.80;;;7.90;70.40;;;;;;4755559;29;114565;-83
2022/12/26 01:02:38;;;;;;;9.65;5.68;;;7.80;70.40;;;;;;4740541;29;114712;-82
2022/12/26 01:05:09;;;;;;;11.70;6.20;;;7.80;70.50;;;;;;4740441;29;115340;-82
2022/12/26 01:07:37;;;;;;;12.38;7.40;;;7.90;70.50;;;;;;4721950;29;115222;-84
2022/12/26 01:10:25;;;;;;;11.82;6.50;;;7.80;70.50;;;;;;4738095;29;114263;-82
2022/12/26 01:12:52;;;;;;;11.48;6.75;;;7.90;70.60;;;;;;4737185;29;114406;-83
2022/12/26 01:15:19;;;;;;;8.90;6.00;;;7.90;70.60;;;;;;4752171;29;115148;-82
2022/12/26 01:17:46;;;;;;;9.25;5.90;;;7.90;70.60;;;;;;4753387;29;114719;-83
2022/12/26 01:20:13;;;;;;;9.13;6.47;;;7.90;70.60;;;;;;4754314;29;114629;-82
2022/12/26 01:22:41;;;;;;;10.32;6.20;;;7.90;70.60;;;;;;4751080;29;114619;-83
2022/12/26 01:25:09;;;;;;;11.02;6.05;;;7.90;70.60;;;;;;4750750;29;115641;-83
2022/12/26 01:27:36;;;;;;;9.27;5.97;;;8.00;70.50;;;;;;4738250;29;114727;-83
2022/12/26 01:30:05;;;;;;;8.48;5.55;;;8.10;70.40;;;;;;4753862;29;114562;-83
2022/12/26 01:32:32;;;;;;;10.15;6.40;;;8.00;70.40;;;;;;4751011;29;114408;-83
2022/12/26 01:34:59;;;;;;;9.80;5.97;;;8.00;70.40;;;;;;4738246;29;117100;-82
2022/12/26 01:37:26;;;;;;;10.55;6.65;;;8.00;70.50;;;;;;4752317;29;115616;-82
2022/12/26 01:39:54;;;;;;;10.52;5.97;;;8.10;70.50;;;;;;4738774;29;114646;-82
2022/12/26 01:42:23;;;;;;;13.02;6.70;;;8.10;70.50;;;;;;4725207;29;114676;-82
2022/12/26 01:45:28;;;;;;;13.45;6.70;;;8.20;70.50;;;;;;4724115;29;115698;-82
2022/12/26 01:48:07;;;;;;;10.77;6.25;;;8.20;70.50;;;;;;4754197;29;116119;-83
2022/12/26 01:50:56;;;;;;;12.18;7.13;;;8.20;70.50;;;;;;4754111;29;114702;-82
2022/12/26 01:53:32;;;;;;;11.75;6.00;;;8.20;70.40;;;;;;4739598;29;114609;-82
2022/12/26 01:56:31;;;;;;;12.70;6.55;;;8.20;70.40;;;;;;4753493;29;114870;-82
2022/12/26 01:59:04;;;;;;;11.13;6.07;;;8.30;70.30;;;;;;4725005;29;114745;-82
2022/12/26 02:01:32;;;;;;;13.18;6.90;;;8.20;70.40;;;;;;4739488;29;114458;-82
2022/12/26 02:06:47;;;;;;;13.25;6.60;;;8.20;70.40;;;;;;4725920;29;115158;-81
2022/12/26 02:09:14;;;;;;;11.50;6.38;;;8.20;70.40;;;;;;4738608;29;114689;-82
2022/12/26 02:11:53;;;;;;;10.93;6.43;;;8.20;70.40;;;;;;4724400;29;115683;-82
2022/12/26 02:14:41;;;;;;;12.77;7.38;;;8.30;70.40;;;;;;4751207;29;116214;-82
2022/12/26 02:17:08;;;;;;;10.20;6.53;;;8.30;70.40;;;;;;4737678;29;117919;-82
2022/12/26 02:20:00;;;;;;;17.05;7.43;;;8.30;70.30;;;;;;4752955;29;115785;-82
2022/12/26 02:23:22;;;;;;;12.77;6.78;;;8.30;70.30;;;;;;4753251;29;114890;-83
2022/12/26 02:26:01;;;;;;;12.90;7.78;;;8.30;70.30;;;;;;4750930;29;114576;-82
2022/12/26 02:29:05;;;;;;;17.00;8.10;;;8.20;70.40;;;;;;4738806;29;115211;-82
2022/12/26 02:32:25;;;;;;;18.95;10.55;;;8.20;70.20;;;;;;4737544;29;115022;-83
2022/12/26 02:35:19;;;;;;;13.85;9.07;;;8.20;69.90;;;;;;4736298;29;114528;-83
2022/12/26 02:38:29;;;;;;;16.53;8.90;;;8.10;70.30;;;;;;4726972;29;114787;-82
2022/12/26 02:41:51;;;;;;;15.70;9.95;;;8.00;70.40;;;;;;4740319;29;117739;-82
2022/12/26 02:47:24;;;;;;;12.05;7.20;;;7.90;70.30;;;;;;4740092;29;114655;-82
2022/12/26 03:14:44;;;;;;;11.48;6.28;;;8.00;71.50;;;;;;4729290;29;114419;-82
2022/12/26 03:17:20;;;;;;;10.27;6.20;;;8.00;71.50;;;;;;4744213;29;115190;-82
2022/12/26 03:19:59;;;;;;;10.48;6.45;;;8.00;71.60;;;;;;4748527;29;114414;-82
2022/12/26 03:22:54;;;;;;;8.80;6.45;;;8.00;71.60;;;;;;4744019;29;115370;-83
2022/12/26 03:28:21;;;;;;;9.68;6.15;;;8.00;71.40;;;;;;4741197;29;116400;-83
2022/12/26 03:30:48;;;;;;;10.73;7.65;;;8.00;71.70;;;;;;4725707;29;114811;-82
2022/12/26 03:36:10;;;;;;;11.65;7.43;;;8.10;71.60;;;;;;4754173;29;114433;-82
2022/12/26 03:38:54;;;;;;;10.63;7.15;;;8.10;71.50;;;;;;4754900;29;115083;-82
2022/12/26 04:20:30;;;;;;;12.43;7.32;;;8.10;71.40;;;;;;4753329;29;114481;-82
2022/12/26 04:46:27;;;;;;;17.70;9.68;;;7.80;70.90;;;;;;4753492;29;114666;-82
2022/12/26 04:51:41;;;;;;;17.45;10.27;;;7.70;70.70;;;;;;4739342;29;114695;-82
2022/12/26 04:54:08;;;;;;;13.82;10.02;;;7.60;70.90;;;;;;4741378;29;114672;-82
2022/12/26 04:56:35;;;;;;;15.68;9.90;;;7.60;70.70;;;;;;4754339;29;114593;-81
2022/12/26 04:59:02;;;;;;;18.02;10.15;;;7.50;70.70;;;;;;4736121;29;116443;-82
2022/12/26 05:09:50;;;;;;;14.40;9.93;;;7.20;71.10;;;;;;4739104;29;115512;-82
2022/12/26 05:12:18;;;;;;;14.18;9.45;;;7.20;71.10;;;;;;4723739;29;116005;-81
2022/12/26 05:14:45;;;;;;;14.73;10.20;;;7.10;71.40;;;;;;4754405;29;114936;-82
2022/12/26 05:31:05;;;;;;;15.88;10.43;;;6.80;72.30;;;;;;4749994;29;115337;-82
2022/12/26 05:36:20;;;;;;;13.65;9.02;;;6.70;72.30;;;;;;4739794;29;114449;-82
2022/12/26 05:38:48;;;;;;;16.98;11.50;;;6.70;72.50;;;;;;4737634;29;114952;-82
2022/12/26 05:41:16;;;;;;;17.25;11.32;;;6.70;72.20;;;;;;4739347;29;115250;-82
2022/12/26 05:43:43;;;;;;;16.25;10.93;;;6.70;72.30;;;;;;4738427;29;116058;-82
2022/12/26 05:46:11;;;;;;;14.75;10.55;;;6.70;72.30;;;;;;4749197;29;114788;-82
2022/12/26 05:48:38;;;;;;;18.33;11.93;;;6.70;72.30;;;;;;4749814;29;114625;-81
2022/12/26 05:51:05;;;;;;;15.88;10.77;;;6.70;72.30;;;;;;4739398;29;115112;-81
2022/12/26 05:53:32;;;;;;;16.90;11.15;;;6.70;72.20;;;;;;4753185;29;114848;-81
2022/12/26 05:56:11;;;;;;;16.77;10.27;;;6.60;72.20;;;;;;4739818;29;114249;-81
2022/12/26 05:58:39;;;;;;;14.98;10.90;;;6.70;72.40;;;;;;4709630;29;117427;-82
2022/12/26 06:01:18;;;;;;;17.85;12.80;;;6.60;72.20;;;;;;4738103;29;114921;-81
2022/12/26 06:03:47;;;;;;;15.82;11.73;;;6.70;72.30;;;;;;4737745;29;114687;-81
2022/12/26 06:06:15;;;;;;;16.58;12.07;;;6.60;72.30;;;;;;4735234;29;114415;-82
2022/12/26 06:08:42;;;;;;;18.30;11.68;;;6.60;72.40;;;;;;4739058;29;114615;-82
2022/12/26 06:11:11;;;;;;;15.93;10.93;;;6.60;72.20;;;;;;4737297;29;115177;-81
2022/12/26 06:13:39;;;;;;;16.30;11.15;;;6.50;72.20;;;;;;4707731;29;115073;-81
2022/12/26 06:16:14;;;;;;;15.18;10.90;;;6.50;72.50;;;;;;4736273;29;114660;-82
2022/12/26 06:18:42;;;;;;;18.33;11.93;;;6.50;72.60;;;;;;4738775;29;116412;-82
2022/12/26 06:21:12;;;;;;;16.55;11.35;;;6.40;72.60;;;;;;4752190;29;115227;-84
2022/12/26 06:23:39;;;;;;;15.60;10.57;;;6.50;72.50;;;;;;4738587;29;115729;-82
2022/12/26 06:26:11;;;;;;;15.10;11.18;;;6.50;72.70;;;;;;4738855;29;114585;-83
2022/12/26 06:28:39;;;;;;;14.43;10.55;;;6.40;72.60;;;;;;4737376;29;114536;-83
2022/12/26 06:31:13;;;;;;;15.60;11.90;;;6.50;72.90;;;;;;4722350;29;115450;-82
2022/12/26 06:33:41;;;;;;;15.20;10.73;;;6.50;72.70;;;;;;4750797;29;117046;-82
2022/12/26 06:36:11;;;;;;;17.67;11.30;;;6.40;73.00;;;;;;4739614;29;114492;-82
2022/12/26 06:38:38;;;;;;;18.83;11.02;;;6.40;73.70;;;;;;4719655;29;114956;-83
2022/12/26 06:41:07;;;;;;;18.67;12.38;;;6.50;73.80;;;;;;4732265;29;115105;-82
2022/12/26 06:43:34;;;;;;;17.95;12.20;;;6.60;73.80;;;;;;4734989;29;115939;-83
2022/12/26 06:46:03;;;;;;;17.63;12.27;;;6.60;73.50;;;;;;4705227;29;114446;-82
2022/12/26 06:48:31;;;;;;;20.85;13.43;;;6.60;73.30;;;;;;4735144;29;115047;-82
2022/12/26 06:51:09;;;;;;;22.13;13.80;;;6.60;73.40;;;;;;4731371;29;115282;-82
2022/12/26 06:53:36;;;;;;;22.02;13.63;;;6.70;73.60;;;;;;4748142;29;114810;-82
2022/12/26 06:56:12;;;;;;;21.25;14.00;;;6.70;73.60;;;;;;4735479;29;115688;-83
2022/12/26 06:58:42;;;;;;;20.63;13.50;;;6.70;73.60;;;;;;4731215;29;117413;-83
2022/12/26 07:01:12;;;;;;;20.23;12.35;;;6.70;73.90;;;;;;4731647;29;115308;-83
2022/12/26 07:03:40;;;;;;;16.90;12.07;;;6.80;73.90;;;;;;4734435;29;116123;-82
2022/12/26 07:06:29;;;;;;;19.02;12.27;;;6.90;73.90;;;;;;4734190;29;114442;-83
2022/12/26 07:09:01;;;;;;;20.52;13.13;;;7.00;74.30;;;;;;4749945;29;114611;-82
2022/12/26 07:11:31;;;;;;;16.65;12.18;;;7.00;73.90;;;;;;4734479;29;115533;-85
2022/12/26 07:13:58;;;;;;;17.05;12.38;;;7.10;74.00;;;;;;4736312;29;117078;-83
2022/12/26 07:16:26;;;;;;;21.55;13.30;;;7.20;73.80;;;;;;4733403;29;114647;-82
2022/12/26 07:18:55;;;;;;;21.63;14.55;;;7.20;73.70;;;;;;4735018;29;114944;-82
2022/12/26 07:21:26;;;;;;;23.27;13.82;;;7.30;73.60;;;;;;4749730;29;115510;-81
2022/12/26 07:23:54;;;;;;;26.67;17.80;;;7.30;73.80;;;;;;4733589;29;115537;-84
2022/12/26 07:26:22;;;;;;;25.33;17.45;;;7.50;73.50;;;;;;4707261;29;114596;-81
2022/12/26 07:28:57;;;;;;;24.30;17.58;;;7.50;73.40;;;;;;4708057;29;114813;-82
2022/12/26 07:31:25;;;;;;;24.20;16.67;;;7.60;73.30;;;;;;4734340;29;115156;-84
2022/12/26 07:33:53;;;;;;;25.27;16.85;;;7.60;73.20;;;;;;4734241;29;115424;-83
2022/12/26 07:36:21;;;;;;;19.38;15.68;;;7.70;73.10;;;;;;4736895;29;114513;-81
2022/12/26 07:38:48;;;;;;;28.58;18.13;;;7.70;73.00;;;;;;4739012;29;114793;-82
2022/12/26 07:44:02;;;;;;;22.98;16.30;;;7.80;72.90;;;;;;4739668;29;119776;-83
2022/12/26 07:46:29;;;;;;;27.30;17.45;;;7.90;72.80;;;;;;4740576;29;114348;-82
2022/12/26 07:48:56;;;;;;;20.83;15.57;;;7.90;72.70;;;;;;4740232;29;114484;-82
2022/12/26 07:51:24;;;;;;;22.00;15.18;;;8.00;72.60;;;;;;4742227;29;115354;-82
2022/12/26 07:53:51;;;;;;;19.67;14.43;;;8.00;72.50;;;;;;4749897;29;114600;-82
2022/12/26 07:56:18;;;;;;;14.60;11.38;;;8.10;72.40;;;;;;4723920;29;114580;-82
2022/12/26 07:58:49;;;;;;;17.30;10.73;;;8.10;72.30;;;;;;4741084;29;114569;-81
2022/12/26 08:01:16;;;;;;;17.08;11.05;;;8.10;72.10;;;;;;4738500;29;115822;-81
2022/12/26 08:03:44;;;;;;;13.98;11.10;;;8.10;72.10;;;;;;4738611;29;114753;-84
2022/12/26 08:06:11;;;;;;;14.63;10.85;;;8.20;72.00;;;;;;4734399;29;114909;-82
2022/12/26 08:08:38;;;;;;;15.32;10.50;;;8.20;71.90;;;;;;4737836;29;117602;-83
2022/12/26 08:11:19;;;;;;;13.50;9.98;;;8.20;71.90;;;;;;4721672;29;117678;-83
2022/12/26 08:13:46;;;;;;;15.10;11.52;;;8.20;71.80;;;;;;4752479;29;115004;-82
2022/12/26 08:16:13;;;;;;;18.17;13.43;;;8.20;71.80;;;;;;4739595;29;119906;-82
2022/12/26 08:18:41;;;;;;;18.15;12.35;;;8.20;71.80;;;;;;4738857;29;114498;-82
2022/12/26 08:21:09;;;;;;;17.85;12.70;;;8.20;71.80;;;;;;4737651;29;116448;-81
2022/12/26 08:23:36;;;;;;;16.15;12.85;;;8.20;71.80;;;;;;4736277;29;116394;-84
2022/12/26 08:26:12;;;;;;;25.85;18.73;;;8.20;71.70;;;;;;4738863;29;114698;-83
2022/12/26 08:28:41;;;;;;;16.20;11.45;;;8.20;71.70;;;;;;4722214;29;118584;-83
2022/12/26 08:31:09;;;;;;;22.65;16.50;;;8.20;71.70;;;;;;4737595;29;115583;-84
2022/12/26 08:33:36;;;;;;;19.05;13.82;;;8.20;71.70;;;;;;4752347;29;115191;-84
2022/12/26 08:36:05;;;;;;;19.23;13.85;;;8.20;71.80;;;;;;4738899;29;114824;-82
2022/12/26 08:38:32;;;;;;;18.08;14.52;;;8.20;71.80;;;;;;4738737;29;114415;-82
2022/12/26 08:41:00;;;;;;;22.65;16.42;;;8.30;71.80;;;;;;4722328;29;115177;-82
2022/12/26 08:43:28;;;;;;;23.65;15.60;;;8.30;71.80;;;;;;4736103;29;114951;-83
2022/12/26 08:46:15;;;;;;;25.08;16.05;;;8.30;71.90;;;;;;4740276;29;114821;-82
2022/12/26 08:48:43;;;;;;;26.70;16.70;;;8.30;71.90;;;;;;4754238;29;115687;-82
2022/12/26 08:51:14;;;;;;;24.42;15.45;;;8.30;71.90;;;;;;4737931;29;116362;-82
2022/12/26 08:53:41;;;;;;;24.08;16.90;;;8.30;71.90;;;;;;4752381;29;116295;-83
2022/12/26 08:56:15;;;;;;;28.42;17.60;;;8.30;71.90;;;;;;4734926;29;114773;-83
2022/12/26 08:58:43;;;;;;;25.52;16.33;;;8.40;71.90;;;;;;4736630;29;114743;-83
2022/12/26 09:01:13;;;;;;;20.95;14.07;;;8.40;71.90;;;;;;4735750;29;117747;-82
2022/12/26 09:03:41;;;;;;;18.23;13.32;;;8.40;71.80;;;;;;4750697;29;117199;-82
2022/12/26 09:06:10;;;;;;;20.63;13.75;;;8.40;71.80;;;;;;4735747;29;114663;-83
2022/12/26 09:08:38;;;;;;;19.98;13.23;;;8.40;71.70;;;;;;4751440;29;114683;-82
2022/12/26 09:11:11;;;;;;;20.38;13.05;;;8.40;71.70;;;;;;4733957;29;116762;-81
2022/12/26 09:13:39;;;;;;;20.05;13.65;;;8.40;71.70;;;;;;4734903;29;115069;-82
2022/12/26 09:16:22;;;;;;;19.98;13.98;;;8.40;71.60;;;;;;4735687;29;114630;-82
2022/12/26 09:18:57;;;;;;;19.45;12.57;;;8.50;71.70;;;;;;4751050;29;114598;-83
2022/12/26 09:21:25;;;;;;;18.25;13.10;;;8.50;71.70;;;;;;4708276;29;115196;-83
2022/12/26 09:24:00;;;;;;;18.40;12.35;;;8.40;71.70;;;;;;4737314;29;118064;-82
2022/12/26 09:26:28;;;;;;;18.15;12.80;;;8.40;71.60;;;;;;4736535;29;114819;-81
2022/12/26 09:28:55;;;;;;;20.50;12.68;;;8.40;71.60;;;;;;4721498;29;117387;-81
2022/12/26 09:31:28;;;;;;;18.08;12.68;;;8.40;71.60;;;;;;4721891;29;118189;-82
2022/12/26 09:33:56;;;;;;;18.10;12.32;;;8.50;71.50;;;;;;4739148;29;114676;-81
2022/12/26 09:36:28;;;;;;;17.10;12.05;;;8.50;71.40;;;;;;4740122;29;114637;-81
2022/12/26 09:38:56;;;;;;;17.23;12.45;;;8.50;71.40;;;;;;4739032;29;114577;-82
2022/12/26 09:41:59;;;;;;;17.30;12.82;;;8.50;71.40;;;;;;4722267;29;115753;-82
2022/12/26 09:44:39;;;;;;;16.15;12.23;;;8.60;71.30;;;;;;4737930;29;117399;-82
2022/12/26 09:47:36;;;;;;;16.25;13.32;;;8.50;71.40;;;;;;4751097;29;114459;-82
2022/12/26 09:50:12;;;;;;;19.05;13.15;;;8.60;71.30;;;;;;4738540;29;114655;-82
2022/12/26 09:52:39;;;;;;;16.10;12.15;;;8.60;71.40;;;;;;4738887;29;117467;-82
2022/12/26 09:55:51;;;;;;;17.67;13.32;;;8.60;71.30;;;;;;4738918;29;114734;-83
2022/12/26 09:58:43;;;;;;;17.80;12.77;;;8.70;71.20;;;;;;4725284;29;114506;-83
2022/12/26 10:01:22;;;;;;;16.92;11.80;;;8.70;71.30;;;;;;4736286;29;114967;-83
2022/12/26 10:03:59;;;;;;;17.48;11.70;;;8.60;71.20;;;;;;4722251;29;116489;-81
2022/12/26 10:06:37;;;;;;;16.73;11.00;;;8.70;71.20;;;;;;4751496;29;114833;-82
2022/12/26 10:09:28;;;;;;;17.05;11.75;;;8.70;71.10;;;;;;4723455;29;117568;-82
2022/12/26 10:12:25;;;;;;;18.40;12.20;;;8.70;71.00;;;;;;4738529;29;114594;-82
2022/12/26 10:15:22;;;;;;;15.05;11.80;;;8.70;71.20;;;;;;4734254;29;115172;-83
2022/12/26 10:18:16;;;;;;;17.48;11.70;;;8.70;71.20;;;;;;4737039;29;114731;-83
2022/12/26 10:21:20;;;;;;;18.30;12.38;;;8.70;71.10;;;;;;4738159;29;114427;-82
2022/12/26 10:23:53;;;;;;;16.40;10.55;;;8.80;71.10;;;;;;4750969;29;115484;-82
2022/12/26 10:26:22;;;;;;;20.08;12.55;;;8.70;70.90;;;;;;4722994;29;115201;-82
2022/12/26 10:29:01;;;;;;;16.30;11.80;;;8.70;71.00;;;;;;4721251;29;117315;-82
2022/12/26 10:31:40;;;;;;;17.23;12.68;;;8.80;71.00;;;;;;4724833;29;114629;-82
2022/12/26 10:34:27;;;;;;;17.17;12.60;;;8.80;71.00;;;;;;4738241;29;114515;-82
2022/12/26 10:37:09;;;;;;;16.85;11.52;;;8.80;70.80;;;;;;4751154;29;115197;-83
2022/12/26 10:39:47;;;;;;;17.83;12.20;;;8.80;70.70;;;;;;4750295;29;114755;-82
2022/12/26 10:42:31;;;;;;;16.05;11.90;;;8.80;70.80;;;;;;4721306;29;114555;-82
2022/12/26 10:45:00;;;;;;;16.90;12.77;;;8.80;70.60;;;;;;4739113;29;115965;-82
2022/12/26 10:47:39;;;;;;;19.00;13.48;;;8.80;70.60;;;;;;4737424;29;114677;-82
2022/12/26 10:50:15;;;;;;;20.52;14.68;;;8.80;70.70;;;;;;4721884;29;118176;-81
2022/12/26 10:52:42;;;;;;;20.23;12.93;;;8.90;70.60;;;;;;4724338;29;114626;-82
2022/12/26 10:55:15;;;;;;;21.77;13.93;;;8.80;70.50;;;;;;4740796;29;114504;-82
2022/12/26 10:57:56;;;;;;;19.50;13.40;;;8.80;70.50;;;;;;4728249;29;115835;-83
2022/12/26 11:00:25;;;;;;;19.60;14.07;;;8.80;70.50;;;;;;4739257;29;114713;-83
2022/12/26 11:03:04;;;;;;;21.30;13.65;;;8.80;70.50;;;;;;4741057;29;115500;-83
2022/12/26 11:05:35;;;;;;;20.05;14.10;;;8.80;70.40;;;;;;4753283;29;114529;-82
2022/12/26 11:08:28;;;;;;;20.30;15.35;;;8.80;70.50;;;;;;4738986;29;115180;-82
2022/12/26 11:11:19;;;;;;;24.77;16.90;;;8.80;70.70;;;;;;4751946;29;114682;-83
2022/12/26 11:13:54;;;;;;;25.50;16.95;;;8.80;70.70;;;;;;4754547;29;117263;-84
2022/12/26 11:16:31;;;;;;;23.63;16.70;;;8.80;70.80;;;;;;4727926;29;114627;-82
2022/12/26 11:18:58;;;;;;;21.55;15.77;;;8.80;70.80;;;;;;4741726;29;115311;-82
2022/12/26 11:21:28;;;;;;;27.25;16.38;;;8.80;70.70;;;;;;4755094;29;114706;-83
2022/12/26 11:24:07;;;;;;;23.67;16.65;;;8.90;70.60;;;;;;4756321;29;114466;-83
2022/12/26 11:26:34;;;;;;;23.20;15.93;;;8.90;70.40;;;;;;4743061;29;114811;-83
2022/12/26 11:29:19;;;;;;;25.58;16.48;;;8.90;70.20;;;;;;4734342;29;116313;-83
2022/12/26 11:31:58;;;;;;;20.90;14.70;;;9.00;70.30;;;;;;4738231;29;114941;-83
2022/12/26 11:34:44;;;;;;;23.75;14.52;;;9.00;70.30;;;;;;4738534;29;114615;-83
2022/12/26 11:37:28;;;;;;;20.48;12.77;;;9.10;70.10;;;;;;4721411;29;114386;-83
2022/12/26 11:39:56;;;;;;;18.20;12.75;;;9.00;70.10;;;;;;4753128;29;115178;-82
2022/12/26 11:42:23;;;;;;;17.30;12.68;;;9.00;70.10;;;;;;4737862;29;114734;-81
2022/12/26 11:44:53;;;;;;;16.05;12.10;;;9.10;69.90;;;;;;4726213;29;114504;-82
2022/12/26 11:47:24;;;;;;;15.80;11.68;;;9.20;69.90;;;;;;4724454;29;114734;-82
2022/12/26 11:50:02;;;;;;;18.33;12.13;;;9.20;69.80;;;;;;4722058;29;115195;-81
2022/12/26 11:52:52;;;;;;;16.35;11.10;;;9.20;69.70;;;;;;4741635;29;114863;-82
2022/12/26 11:55:28;;;;;;;15.70;11.35;;;9.30;69.50;;;;;;4723581;29;114671;-81
2022/12/26 11:58:07;;;;;;;17.45;12.85;;;9.20;69.50;;;;;;4742129;29;114535;-84
2022/12/26 12:00:34;;;;;;;15.13;12.40;;;9.30;69.40;;;;;;4740601;29;115716;-81
2022/12/26 12:03:13;;;;;;;20.23;13.60;;;9.30;69.50;;;;;;4740908;29;114862;-82
2022/12/26 12:06:14;;;;;;;17.35;12.73;;;9.40;69.40;;;;;;4736593;29;114510;-82
2022/12/26 12:08:59;;;;;;;17.35;12.68;;;9.40;69.40;;;;;;4723084;29;114610;-81
2022/12/26 12:12:23;;;;;;;17.90;12.60;;;9.40;69.40;;;;;;4740740;29;115264;-82
2022/12/26 12:15:16;;;;;;;17.08;12.27;;;9.50;69.30;;;;;;4752640;29;115622;-82
2022/12/26 12:18:42;;;;;;;16.17;12.55;;;9.50;69.50;;;;;;4738562;29;114612;-82
2022/12/26 12:21:19;;;;;;;18.05;11.75;;;9.50;69.30;;;;;;4740499;29;114827;-82
2022/12/26 12:24:17;;;;;;;25.90;20.05;;;9.50;69.40;;;;;;4740796;29;115218;-82
2022/12/26 12:27:06;;;;;;;24.20;18.40;;;9.60;69.30;;;;;;4750967;29;116503;-82
2022/12/26 12:29:53;;;;;;;20.13;14.45;;;9.60;69.30;;;;;;4740389;29;114511;-83
2022/12/26 12:32:48;;;;;;;19.85;14.52;;;9.70;69.30;;;;;;4738582;29;114501;-82
2022/12/26 12:35:44;;;;;;;22.00;16.75;;;9.70;69.30;;;;;;4740324;29;115739;-83
2022/12/26 12:38:28;;;;;;;26.00;18.90;;;9.70;69.40;;;;;;4740173;29;114787;-84
2022/12/26 12:41:15;;;;;;;29.08;19.92;;;9.70;69.40;;;;;;4741141;29;114400;-84
2022/12/26 12:44:13;;;;;;;34.13;19.15;;;9.70;69.40;;;;;;4736607;29;114575;-84
2022/12/26 12:46:49;;;;;;;25.13;15.52;;;9.70;69.40;;;;;;4732430;29;115223;-83
2022/12/26 12:49:34;;;;;;;26.33;16.27;;;9.70;69.50;;;;;;4740621;29;114587;-83
2022/12/26 12:52:47;;;;;;;25.27;15.77;;;9.80;69.40;;;;;;4741302;29;114615;-83
2022/12/26 12:55:28;;;;;;;22.52;16.63;;;9.90;69.30;;;;;;4736401;29;114613;-83
2022/12/26 12:58:48;;;;;;;22.77;15.77;;;9.80;69.50;;;;;;4752605;29;115602;-83
2022/12/26 13:01:23;;;;;;;27.10;19.90;;;9.80;69.30;;;;;;4702667;29;114879;-83
2022/12/26 13:04:13;;;;;;;21.25;14.52;;;9.80;69.40;;;;;;4674202;29;114660;-83
2022/12/26 13:06:49;;;;;;;22.30;14.20;;;9.80;69.10;;;;;;4700010;29;115899;-83
2022/12/26 13:09:25;;;;;;;20.00;13.60;;;9.80;68.90;;;;;;4738642;29;115295;-83
2022/12/26 13:12:00;;;;;;;21.77;14.80;;;9.80;68.90;;;;;;4738319;29;115145;-83
2022/12/26 13:14:36;;;;;;;21.60;15.18;;;9.80;68.80;;;;;;4723465;29;115993;-83
2022/12/26 13:17:17;;;;;;;18.77;13.90;;;9.90;68.60;;;;;;4722881;29;115159;-83
2022/12/26 13:20:16;;;;;;;18.80;13.93;;;9.90;68.60;;;;;;4737435;29;115283;-83
2022/12/26 13:26:11;;;;;;;23.95;15.98;;;9.80;68.70;;;;;;4737340;29;114621;-83
2022/12/26 13:29:18;;;;;;;19.63;15.60;;;9.80;68.70;;;;;;4735364;29;114677;-83
2022/12/26 13:31:48;;;;;;;19.33;15.35;;;9.80;68.70;;;;;;4723219;29;118464;-83
2022/12/26 13:34:17;;;;;;;20.38;16.35;;;9.80;68.80;;;;;;4738027;29;116163;-83
2022/12/26 13:36:55;;;;;;;20.02;16.75;;;9.80;68.70;;;;;;4724761;29;114485;-82
2022/12/26 13:39:26;;;;;;;21.00;16.05;;;9.80;68.60;;;;;;4726758;29;114693;-83
2022/12/26 13:45:36;;;;;;;20.70;14.68;;;9.80;68.60;;;;;;4738922;29;115192;-83
2022/12/26 13:48:15;;;;;;;20.10;13.75;;;9.90;68.50;;;;;;4734923;29;114925;-84
2022/12/26 13:50:50;;;;;;;18.70;13.90;;;9.80;68.50;;;;;;4738773;29;115058;-83
2022/12/26 13:53:25;;;;;;;20.23;15.35;;;9.80;68.50;;;;;;4736771;29;118691;-83
2022/12/26 13:56:23;;;;;;;24.50;18.30;;;9.80;68.50;;;;;;4708615;29;118164;-86
2022/12/26 13:59:12;;;;;;;23.85;17.13;;;9.90;68.40;;;;;;4735652;29;114352;-83
2022/12/26 14:02:04;;;;;;;24.85;16.08;;;9.80;68.50;;;;;;4724219;29;114770;-83
2022/12/26 14:05:18;;;;;;;22.47;15.83;;;9.80;68.40;;;;;;4739427;29;115236;-82
2022/12/26 14:08:33;;;;;;;18.90;11.90;;;9.80;68.30;;;;;;4715456;29;115078;-83
2022/12/26 14:11:22;;;;;;;17.25;12.60;;;9.80;68.10;;;;;;4734753;29;115830;-83
2022/12/26 14:13:58;;;;;;;12.30;8.20;;;9.90;67.90;;;;;;4737926;29;114659;-83
2022/12/26 14:17:03;;;;;;;10.43;6.97;;;9.80;67.70;;;;;;4750940;29;115200;-82
2022/12/26 14:19:34;;;;;;;10.13;6.82;;;9.90;67.20;;;;;;4738887;29;114718;-83
2022/12/26 14:22:30;;;;;;;11.82;7.72;;;9.90;67.10;;;;;;4750869;29;114886;-83
2022/12/26 14:25:31;;;;;;;12.68;8.10;;;9.90;67.00;;;;;;4750995;29;115535;-83
2022/12/26 14:28:43;;;;;;;17.00;11.77;;;10.00;66.80;;;;;;4734793;29;115451;-83
2022/12/26 14:31:54;;;;;;;20.38;13.48;;;10.00;67.10;;;;;;4736872;29;115851;-83
2022/12/26 14:34:54;;;;;;;21.52;13.77;;;9.90;67.40;;;;;;4747191;29;114796;-83
2022/12/26 14:37:35;;;;;;;22.42;14.32;;;9.90;67.50;;;;;;4721097;29;115979;-83
2022/12/26 14:40:28;;;;;;;23.30;13.63;;;9.80;67.60;;;;;;4738500;29;115161;-83
2022/12/26 14:43:10;;;;;;;23.85;14.95;;;9.80;67.50;;;;;;4738915;29;114794;-83
2022/12/26 14:45:49;;;;;;;22.58;13.82;;;9.80;67.60;;;;;;4752413;29;114393;-83
2022/12/26 14:48:17;;;;;;;20.85;15.50;;;9.80;67.50;;;;;;4739479;29;114406;-83
2022/12/26 14:51:02;;;;;;;21.23;13.63;;;9.70;67.70;;;;;;4738009;29;115248;-83
2022/12/26 14:53:33;;;;;;;19.95;13.30;;;9.70;67.50;;;;;;4738791;29;115059;-83
2022/12/26 14:56:07;;;;;;;21.65;14.85;;;9.60;67.80;;;;;;4739457;29;114573;-83
2022/12/26 14:58:44;;;;;;;22.08;15.27;;;9.50;67.90;;;;;;4739411;29;114718;-83
2022/12/26 15:01:23;;;;;;;23.63;15.13;;;9.50;68.10;;;;;;4737238;29;115740;-83
2022/12/26 15:04:36;;;;;;;23.88;16.00;;;9.50;68.10;;;;;;4752345;29;116510;-83
2022/12/26 15:07:57;;;;;;;23.25;15.55;;;9.50;68.10;;;;;;4747210;29;114431;-83
2022/12/26 15:10:37;;;;;;;22.17;14.50;;;9.50;68.10;;;;;;4738928;29;115822;-83
2022/12/26 15:13:47;;;;;;;22.45;14.23;;;9.40;68.30;;;;;;4736402;29;116658;-83
2022/12/26 15:16:39;;;;;;;21.92;14.88;;;9.50;68.30;;;;;;4738353;29;114742;-83
2022/12/26 15:19:43;;;;;;;21.60;15.32;;;9.30;68.50;;;;;;4746564;29;114629;-83
2022/12/26 15:22:34;;;;;;;18.80;13.48;;;9.40;68.50;;;;;;4737800;29;114736;-82
2022/12/26 15:25:22;;;;;;;20.73;13.27;;;9.30;68.50;;;;;;4737316;29;115231;-82
2022/12/26 15:28:30;;;;;;;20.60;13.30;;;9.30;68.40;;;;;;4747392;29;115025;-82
2022/12/26 15:31:18;;;;;;;20.42;13.73;;;9.30;68.20;;;;;;4738925;29;114413;-82
2022/12/26 15:33:58;;;;;;;18.45;13.02;;;9.30;68.20;;;;;;4722587;29;114478;-83
2022/12/26 15:36:47;;;;;;;17.83;13.02;;;9.20;68.20;;;;;;4735067;29;115328;-82
2022/12/26 15:39:26;;;;;;;15.52;11.80;;;9.20;68.30;;;;;;4752001;29;115095;-83